createdAt,value
2022-11-11T00:01:30.934Z,99927.03
2022-11-11T00:04:17.645Z,99917.25
2022-11-11T00:07:04.402Z,99928.72
2022-11-11T00:09:51.118Z,99931.09
2022-11-11T00:12:38.017Z,99942.97
2022-11-11T00:15:24.426Z,99941.88
2022-11-11T00:18:30.579Z,99948.09
2022-11-11T00:21:34.977Z,99948.13
2022-11-11T00:24:40.850Z,99937.00
2022-11-11T00:27:27.592Z,99931.31
2022-11-11T00:30:14.270Z,99937.75
2022-11-11T00:33:01.063Z,99931.50
2022-11-11T00:35:55.358Z,99939.78
2022-11-11T00:38:49.418Z,99953.66
2022-11-11T00:41:35.995Z,99948.78
2022-11-11T00:44:22.715Z,99932.78
2022-11-11T00:47:27.296Z,99950.53
2022-11-11T00:50:34.378Z,99953.22
2022-11-11T00:53:27.163Z,99966.72
2022-11-11T00:56:14.819Z,99971.78
2022-11-11T00:59:01.745Z,99968.84
2022-11-11T01:01:48.614Z,99952.72
2022-11-11T01:04:35.221Z,99955.41
2022-11-11T01:07:21.806Z,99951.59
2022-11-11T01:10:10.641Z,99959.13
2022-11-11T01:13:12.103Z,99955.28
2022-11-11T01:16:00.585Z,99961.97
2022-11-11T01:18:47.216Z,99963.41
2022-11-11T01:21:33.460Z,99961.38
2022-11-11T01:24:20.249Z,99962.56
2022-11-11T01:27:08.484Z,99967.03
2022-11-11T01:29:55.287Z,99967.50
2022-11-11T01:32:41.971Z,99969.06
2022-11-11T01:35:28.876Z,99975.84
2022-11-11T01:38:15.418Z,99963.72
2022-11-11T01:41:22.319Z,99965.03
2022-11-11T01:44:19.992Z,99962.06
2022-11-11T01:47:07.871Z,99966.72
2022-11-11T01:49:56.199Z,99962.78
2022-11-11T01:52:45.293Z,99955.25
2022-11-11T01:55:32.779Z,99958.28
2022-11-11T01:58:20.471Z,99976.88
2022-11-11T02:01:09.047Z,99963.31
2022-11-11T02:04:15.443Z,99969.53
2022-11-11T02:07:04.235Z,99973.50
2022-11-11T02:09:52.646Z,99970.44
2022-11-11T02:13:11.199Z,99981.75
2022-11-11T02:15:58.044Z,99987.66
2022-11-11T02:18:46.225Z,100002.09
2022-11-11T02:21:36.261Z,100003.63
2022-11-11T02:24:24.746Z,100007.53
2022-11-11T02:27:13.042Z,100007.66
2022-11-11T02:30:01.449Z,100007.59
2022-11-11T02:32:49.433Z,100004.81
2022-11-11T02:35:37.119Z,99986.34
2022-11-11T02:38:24.890Z,99987.69
2022-11-11T02:41:30.422Z,99982.69
2022-11-11T02:44:17.100Z,99980.59
2022-11-11T02:47:04.014Z,99977.69
2022-11-11T02:49:50.391Z,99974.72
2022-11-11T02:52:37.290Z,99976.09
2022-11-11T02:55:24.203Z,99979.22
2022-11-11T02:58:12.351Z,99972.75
2022-11-11T03:00:59.403Z,99961.31
2022-11-11T03:03:46.336Z,99967.38
2022-11-11T03:06:32.843Z,99970.31
2022-11-11T03:09:19.590Z,99965.94
2022-11-11T03:12:06.700Z,99963.63
2022-11-11T03:14:55.742Z,99960.94
2022-11-11T03:17:41.257Z,99951.34
2022-11-11T03:20:45.873Z,99949.06
2022-11-11T03:23:32.758Z,99953.66
2022-11-11T03:26:19.518Z,99949.03
2022-11-11T03:29:06.688Z,99965.47
2022-11-11T03:31:54.894Z,99970.63
2022-11-11T03:34:41.453Z,99952.06
2022-11-11T03:37:45.891Z,99950.16
2022-11-11T03:40:32.679Z,99961.09
2022-11-11T03:43:20.431Z,99960.53
2022-11-11T03:46:06.976Z,99978.00
2022-11-11T03:48:54.919Z,99992.75
2022-11-11T03:51:41.538Z,100002.59
2022-11-11T03:54:28.287Z,100000.50
2022-11-11T03:57:33.407Z,100005.44
2022-11-11T04:00:21.490Z,100010.69
2022-11-11T04:03:28.400Z,100008.00
2022-11-11T04:06:33.963Z,100005.91
2022-11-11T04:09:38.255Z,99998.31
2022-11-11T04:12:25.025Z,99983.34
2022-11-11T04:15:29.241Z,99975.81
2022-11-11T04:18:15.756Z,99971.91
2022-11-11T04:21:20.107Z,99953.88
2022-11-11T04:24:22.697Z,99961.38
2022-11-11T04:27:10.495Z,99967.56
2022-11-11T04:29:56.162Z,99968.91
2022-11-11T04:32:43.333Z,99964.31
2022-11-11T04:35:30.015Z,99962.69
2022-11-11T04:38:36.399Z,99984.84
2022-11-11T04:41:31.957Z,99979.03
2022-11-11T04:44:48.725Z,99982.03
2022-11-11T04:47:35.601Z,99991.56
2022-11-11T04:50:22.291Z,99991.31
2022-11-11T04:53:10.275Z,100002.69
2022-11-11T04:56:14.255Z,100001.78
2022-11-11T04:59:17.194Z,100000.28
2022-11-11T05:02:21.632Z,100010.56
2022-11-11T05:05:08.551Z,100005.69
2022-11-11T05:08:13.423Z,100022.56
2022-11-11T05:11:00.082Z,100011.50
2022-11-11T05:14:04.645Z,100020.28
2022-11-11T05:17:11.400Z,100018.59
2022-11-11T05:20:21.126Z,100030.53
2022-11-11T05:23:08.098Z,100031.22
2022-11-11T05:25:53.636Z,100043.91
2022-11-11T05:28:40.407Z,100048.09
2022-11-11T05:31:27.359Z,100047.53
2022-11-11T05:34:15.111Z,100043.50
2022-11-11T05:37:02.031Z,100052.31
2022-11-11T05:39:48.785Z,100060.50
2022-11-11T05:42:35.442Z,100064.41
2022-11-11T05:45:22.229Z,100070.88
2022-11-11T05:48:08.874Z,100079.72
2022-11-11T05:50:58.766Z,100077.75
2022-11-11T05:53:45.422Z,100073.13
2022-11-11T05:56:32.266Z,100085.75
2022-11-11T05:59:19.086Z,100080.84
2022-11-11T06:02:06.136Z,100089.72
2022-11-11T06:04:54.192Z,100092.53
2022-11-11T06:07:41.897Z,100098.13
2022-11-11T06:10:31.546Z,100097.00
2022-11-11T06:13:17.881Z,100106.25
2022-11-11T06:16:05.049Z,100109.31
2022-11-11T06:18:52.435Z,100114.69
2022-11-11T06:21:52.862Z,100133.41
2022-11-11T06:24:40.597Z,100132.19
2022-11-11T06:27:27.338Z,100127.09
2022-11-11T06:30:44.373Z,100120.34
2022-11-11T06:33:21.663Z,100114.72
2022-11-11T06:36:09.297Z,100122.19
2022-11-11T06:38:55.901Z,100119.72
2022-11-11T06:41:43.973Z,100123.72
2022-11-11T06:44:30.752Z,100112.03
2022-11-11T06:47:17.507Z,100121.84
2022-11-11T06:50:04.406Z,100127.53
2022-11-11T06:52:50.944Z,100127.25
2022-11-11T06:55:37.915Z,100126.50
2022-11-11T06:58:26.533Z,100129.31
2022-11-11T07:01:14.044Z,100122.31
2022-11-11T07:04:00.854Z,100128.09
2022-11-11T07:06:47.604Z,100125.72
2022-11-11T07:09:34.400Z,100124.72
2022-11-11T07:12:21.195Z,100129.94
2022-11-11T07:15:09.999Z,100123.56
2022-11-11T07:17:56.552Z,100117.53
2022-11-11T07:20:43.292Z,100132.75
2022-11-11T07:23:29.998Z,100139.06
2022-11-11T07:26:16.729Z,100145.06
2022-11-11T07:29:03.535Z,100146.63
2022-11-11T07:31:51.526Z,100146.31
2022-11-11T07:34:38.109Z,100140.41
2022-11-11T07:37:25.026Z,100141.16
2022-11-11T07:40:12.501Z,100147.75
2022-11-11T07:42:59.208Z,100149.88
2022-11-11T07:45:46.071Z,100155.47
2022-11-11T07:48:34.161Z,100142.28
2022-11-11T07:51:20.539Z,100148.19
2022-11-11T07:54:07.384Z,100153.84
2022-11-11T07:56:54.174Z,100153.84
2022-11-11T07:59:41.842Z,100159.59
2022-11-11T08:02:29.118Z,100160.72
2022-11-11T08:05:17.828Z,100154.66
2022-11-11T08:08:05.594Z,100152.63
2022-11-11T08:10:55.029Z,100166.94
2022-11-11T08:13:41.488Z,100161.19
2022-11-11T08:16:28.397Z,100152.31
2022-11-11T08:19:14.985Z,100149.72
2022-11-11T08:22:04.410Z,100139.63
2022-11-11T08:25:07.311Z,100134.13
2022-11-11T08:27:58.928Z,100134.38
2022-11-11T08:30:45.909Z,100133.56
2022-11-11T08:33:34.646Z,100130.00
2022-11-11T08:36:23.387Z,100127.19
2022-11-11T08:39:11.984Z,100125.16
2022-11-11T08:41:58.970Z,100137.78
2022-11-11T08:44:45.505Z,100145.41
2022-11-11T08:47:32.283Z,100147.31
2022-11-11T08:50:19.700Z,100147.56
2022-11-11T08:53:07.714Z,100147.97
2022-11-11T08:55:55.717Z,100149.38
2022-11-11T08:58:42.680Z,100146.22
2022-11-11T09:01:29.592Z,100147.69
2022-11-11T09:04:42.968Z,100150.28
2022-11-11T09:07:24.070Z,100145.09
2022-11-11T09:10:11.219Z,100138.97
2022-11-11T09:12:59.389Z,100134.88
2022-11-11T09:15:46.654Z,100134.22
2022-11-11T09:18:33.164Z,100102.78
2022-11-11T09:21:19.865Z,100126.91
2022-11-11T09:24:06.676Z,100116.38
2022-11-11T09:26:53.617Z,100098.56
2022-11-11T09:29:41.834Z,100101.41
2022-11-11T09:32:29.000Z,100089.00
2022-11-11T09:35:15.557Z,100080.19
2022-11-11T09:38:02.644Z,100063.75
2022-11-11T09:40:59.097Z,100069.56
2022-11-11T09:43:51.871Z,100067.91
2022-11-11T09:46:45.136Z,100056.50
2022-11-11T09:49:39.714Z,100056.28
2022-11-11T09:52:30.173Z,100045.78
2022-11-11T09:55:19.568Z,100034.44
2022-11-11T09:58:07.897Z,100038.31
2022-11-11T10:00:58.761Z,100040.84
2022-11-11T10:03:48.222Z,100052.94
2022-11-11T10:06:35.453Z,100064.31
2022-11-11T10:09:25.913Z,100069.84
2022-11-11T10:12:13.905Z,100079.28
2022-11-11T10:15:01.447Z,100074.44
2022-11-11T10:17:54.676Z,100081.78
2022-11-11T10:20:43.742Z,100078.13
2022-11-11T10:23:31.611Z,100081.03
2022-11-11T10:26:21.183Z,100083.28
2022-11-11T10:29:15.675Z,100083.75
2022-11-11T10:32:04.258Z,100079.28
2022-11-11T10:34:50.838Z,100076.94
2022-11-11T10:37:40.692Z,100078.13
2022-11-11T10:40:30.519Z,100077.66
2022-11-11T10:43:22.149Z,100073.78
2022-11-11T10:46:11.119Z,100067.66
2022-11-11T10:48:59.464Z,100063.53
2022-11-11T10:51:48.568Z,100068.97
2022-11-11T10:54:43.783Z,100059.22
2022-11-11T10:57:32.831Z,100059.88
2022-11-11T11:00:19.776Z,100049.25
2022-11-11T11:03:11.700Z,100045.88
2022-11-11T11:06:00.138Z,100041.75
2022-11-11T11:08:48.665Z,100037.72
2022-11-11T11:11:41.604Z,100037.13
2022-11-11T11:14:31.231Z,100033.84
2022-11-11T11:17:21.379Z,100030.03
2022-11-11T11:20:08.929Z,100023.41
2022-11-11T11:22:58.846Z,100024.06
2022-11-11T11:25:52.871Z,100030.75
2022-11-11T11:28:54.574Z,100008.47
2022-11-11T11:31:42.904Z,100016.75
2022-11-11T11:34:43.845Z,100006.53
2022-11-11T11:37:30.259Z,100015.38
2022-11-11T11:40:16.995Z,100011.69
2022-11-11T11:43:04.896Z,100016.72
2022-11-11T11:45:57.816Z,100009.56
2022-11-11T11:48:54.285Z,100013.81
2022-11-11T11:51:46.138Z,100005.59
2022-11-11T11:54:51.768Z,99998.59
2022-11-11T11:57:56.289Z,99998.28
2022-11-11T12:00:47.016Z,99993.56
2022-11-11T12:03:43.464Z,99991.34
2022-11-11T12:06:34.766Z,99989.19
2022-11-11T12:09:29.821Z,99992.50
2022-11-11T12:12:20.798Z,99981.16
2022-11-11T12:15:17.067Z,99985.09
2022-11-11T12:18:18.807Z,99989.91
2022-11-11T12:21:10.121Z,99986.66
2022-11-11T12:23:59.177Z,99989.75
2022-11-11T12:26:51.094Z,99991.59
2022-11-11T12:29:44.085Z,99964.66
2022-11-11T12:32:35.019Z,99987.00
2022-11-11T12:35:26.686Z,99981.88
2022-11-11T12:38:24.973Z,99972.88
2022-11-11T12:41:18.154Z,99975.38
2022-11-11T12:44:05.758Z,99976.25
2022-11-11T12:46:59.844Z,99977.81
2022-11-11T12:49:54.294Z,99970.63
2022-11-11T12:52:48.232Z,99968.81
2022-11-11T12:55:41.234Z,99980.00
2022-11-11T12:58:31.565Z,99976.50
2022-11-11T13:01:23.161Z,99971.16
2022-11-11T13:04:29.941Z,99963.25
2022-11-11T13:07:33.942Z,99968.47
2022-11-11T13:10:37.965Z,99962.19
2022-11-11T13:13:32.522Z,99959.50
2022-11-11T13:16:22.498Z,99961.06
2022-11-11T13:19:20.100Z,99959.91
2022-11-11T13:22:09.635Z,99950.38
2022-11-11T13:24:58.674Z,99951.97
2022-11-11T13:27:49.274Z,99952.38
2022-11-11T13:30:55.811Z,99954.09
2022-11-11T13:33:45.014Z,99951.56
2022-11-11T13:36:40.621Z,99943.06
2022-11-11T13:39:29.838Z,99942.81
2022-11-11T13:42:22.012Z,99946.56
2022-11-11T13:45:09.561Z,99942.63
2022-11-11T13:47:57.833Z,99938.94
2022-11-11T13:50:44.600Z,99928.84
2022-11-11T13:53:32.696Z,99942.22
2022-11-11T13:56:27.646Z,99942.41
2022-11-11T13:59:22.006Z,99944.97
2022-11-11T14:02:28.857Z,99950.34
2022-11-11T14:05:23.943Z,99947.00
2022-11-11T14:08:10.363Z,99943.94
2022-11-11T14:10:59.528Z,99937.03
2022-11-11T14:13:46.238Z,99943.69
2022-11-11T14:16:51.869Z,99939.69
2022-11-11T14:19:38.351Z,99937.84
2022-11-11T14:22:31.105Z,99947.81
2022-11-11T14:25:22.758Z,99952.81
2022-11-11T14:28:20.496Z,99957.75
2022-11-11T14:31:21.998Z,99957.38
2022-11-11T14:34:14.172Z,99964.47
2022-11-11T14:37:04.908Z,99960.06
2022-11-11T14:39:54.395Z,99975.06
2022-11-11T14:42:47.638Z,99982.38
2022-11-11T14:45:58.225Z,99975.91
2022-11-11T14:48:52.393Z,99978.81
2022-11-11T14:51:41.582Z,99972.75
2022-11-11T14:54:34.484Z,99980.66
2022-11-11T14:57:26.363Z,99980.88
2022-11-11T15:00:15.530Z,99980.81
2022-11-11T15:03:04.901Z,99982.19
2022-11-11T15:05:54.177Z,99969.63
2022-11-11T15:08:46.071Z,99972.22
2022-11-11T15:11:36.156Z,99970.84
2022-11-11T15:14:31.009Z,99986.00
2022-11-11T15:17:23.338Z,99975.88
2022-11-11T15:20:20.490Z,99980.41
2022-11-11T15:23:12.390Z,99980.38
2022-11-11T15:26:02.158Z,99976.50
2022-11-11T15:29:03.480Z,99983.63
2022-11-11T15:31:56.239Z,99978.31
2022-11-11T15:34:44.288Z,99979.44
2022-11-11T15:37:31.678Z,99985.16
2022-11-11T15:40:20.387Z,99987.09
2022-11-11T15:43:06.936Z,99990.75
2022-11-11T15:45:54.808Z,99995.78
2022-11-11T15:48:44.348Z,100001.00
2022-11-11T15:51:31.464Z,99997.75
2022-11-11T15:54:19.658Z,100002.28
2022-11-11T15:57:25.807Z,100000.63
2022-11-11T16:00:26.765Z,99999.25
2022-11-11T16:03:16.006Z,100006.91
2022-11-11T16:06:05.702Z,99987.81
2022-11-11T16:08:53.875Z,100007.56
2022-11-11T16:11:41.337Z,100005.63
2022-11-11T16:14:30.678Z,100014.75
2022-11-11T16:17:17.843Z,100015.03
2022-11-11T16:20:05.085Z,100010.28
2022-11-11T16:22:56.141Z,100011.38
2022-11-11T16:25:42.919Z,100008.22
2022-11-11T16:28:33.468Z,100016.31
2022-11-11T16:31:31.127Z,100003.06
2022-11-11T16:34:24.660Z,100001.59
2022-11-11T16:37:16.042Z,100007.25
2022-11-11T16:40:17.494Z,100003.28
2022-11-11T16:43:22.338Z,100012.06
2022-11-11T16:46:10.110Z,100007.63
2022-11-11T16:48:56.585Z,100020.59
2022-11-11T16:51:44.711Z,100022.38
2022-11-11T16:54:32.630Z,100030.63
2022-11-11T16:57:20.647Z,100034.13
2022-11-11T17:00:13.390Z,100041.59
2022-11-11T17:03:13.764Z,100042.81
2022-11-11T17:06:01.075Z,100038.47
2022-11-11T17:08:48.035Z,100033.63
2022-11-11T17:11:45.021Z,100037.22
2022-11-11T17:14:33.928Z,100041.00
2022-11-11T17:17:22.115Z,100030.94
2022-11-11T17:20:10.738Z,100043.50
2022-11-11T17:22:58.289Z,100036.66
2022-11-11T17:25:45.523Z,100039.47
2022-11-11T17:28:33.176Z,100053.88
2022-11-11T17:31:19.542Z,100046.50
2022-11-11T17:34:08.369Z,100051.63
2022-11-11T17:36:54.711Z,100054.81
2022-11-11T17:39:44.780Z,100062.34
2022-11-11T17:42:31.772Z,100070.47
2022-11-11T17:45:18.577Z,100073.81
2022-11-11T17:48:05.233Z,100074.19
2022-11-11T17:50:53.106Z,100080.38
2022-11-11T17:53:39.731Z,100090.63
2022-11-11T17:56:26.822Z,100092.00
2022-11-11T17:59:13.672Z,100091.31
2022-11-11T18:02:01.891Z,100088.13
2022-11-11T18:04:48.609Z,100082.41
2022-11-11T18:07:39.144Z,100077.84
2022-11-11T18:10:29.294Z,100082.44
2022-11-11T18:13:16.123Z,100082.91
2022-11-11T18:16:05.943Z,100079.22
2022-11-11T18:18:54.362Z,100082.19
2022-11-11T18:21:42.432Z,100084.72
2022-11-11T18:24:30.395Z,100098.00
2022-11-11T18:27:17.191Z,100063.34
2022-11-11T18:30:03.660Z,100094.63
2022-11-11T18:32:50.436Z,100095.34
2022-11-11T18:35:37.116Z,100096.03
2022-11-11T18:38:24.449Z,100096.19
2022-11-11T18:41:13.589Z,100095.66
2022-11-11T18:44:00.387Z,100099.34
2022-11-11T18:46:47.283Z,100096.00
2022-11-11T18:49:33.945Z,100097.16
2022-11-11T18:52:25.393Z,100107.50
2022-11-11T18:55:12.016Z,100102.69
2022-11-11T18:58:02.191Z,100108.75
2022-11-11T19:00:54.139Z,100100.13
2022-11-11T19:03:44.841Z,100096.47
2022-11-11T19:06:32.447Z,100102.84
2022-11-11T19:09:20.526Z,100094.31
2022-11-11T19:12:07.505Z,100102.44
2022-11-11T19:14:55.602Z,100094.72
2022-11-11T19:17:42.578Z,100093.09
2022-11-11T19:20:29.333Z,100079.19
2022-11-11T19:23:18.284Z,100099.69
2022-11-11T19:26:08.257Z,100095.69
2022-11-11T19:28:59.750Z,100098.84
2022-11-11T19:31:48.883Z,100099.53
2022-11-11T19:34:35.406Z,100107.59
2022-11-11T19:37:22.989Z,100113.78
2022-11-11T19:40:10.007Z,100111.13
2022-11-11T19:42:57.001Z,100110.16
2022-11-11T19:45:46.202Z,100118.88
2022-11-11T19:48:34.632Z,100147.19
2022-11-11T19:51:23.899Z,100195.09
2022-11-11T19:54:11.364Z,100188.56
2022-11-11T19:56:58.307Z,100131.09
2022-11-11T19:59:44.894Z,100070.09
2022-11-11T20:02:31.403Z,100023.16
2022-11-11T20:05:25.826Z,99993.28
2022-11-11T20:08:12.722Z,99981.81
2022-11-11T20:11:05.368Z,99968.38
2022-11-11T20:13:52.261Z,63131.69
2022-11-11T20:16:39.142Z,99968.38
2022-11-11T20:19:26.151Z,99939.41
2022-11-11T20:22:14.177Z,99938.16
2022-11-11T20:25:01.176Z,99938.03
2022-11-11T20:27:51.587Z,63131.69
2022-11-11T20:30:37.949Z,99925.84
2022-11-11T20:33:24.914Z,99925.84
2022-11-11T20:36:13.452Z,99925.84
2022-11-11T20:39:01.200Z,99925.84
2022-11-11T20:41:47.919Z,99925.84
2022-11-11T20:44:34.711Z,99925.84
2022-11-11T20:47:21.463Z,99925.84
2022-11-11T20:50:08.849Z,99888.56
2022-11-11T20:52:55.739Z,99915.72
2022-11-11T20:55:43.450Z,99937.03
2022-11-11T20:58:30.088Z,99968.59
2022-11-11T21:01:17.861Z,99982.56
2022-11-11T21:04:04.468Z,99986.38
2022-11-11T21:06:51.167Z,99984.94
2022-11-11T21:09:37.878Z,100018.00
2022-11-11T21:12:26.037Z,100014.06
2022-11-11T21:15:12.517Z,100032.19
2022-11-11T21:17:59.173Z,100032.59
2022-11-11T21:20:46.091Z,100043.69
2022-11-11T21:23:32.487Z,100048.28
2022-11-11T21:26:19.943Z,100050.81
2022-11-11T21:29:08.084Z,100079.28
2022-11-11T21:31:54.463Z,100080.56
2022-11-11T21:34:41.267Z,100085.44
2022-11-11T21:37:28.635Z,100069.06
2022-11-11T21:40:15.306Z,100063.53
2022-11-11T21:43:04.522Z,100056.66
2022-11-11T21:45:52.352Z,100047.41
2022-11-11T21:48:39.358Z,100041.06
2022-11-11T21:51:26.927Z,100038.28
2022-11-11T21:54:13.746Z,100042.19
2022-11-11T21:57:00.541Z,100048.78
2022-11-11T22:02:36.606Z,100064.53
2022-11-11T22:05:23.594Z,100066.56
2022-11-11T22:08:10.214Z,100066.56
2022-11-11T22:11:01.612Z,100070.53
2022-11-11T22:14:47.132Z,63131.69
2022-11-11T22:17:33.917Z,63131.69
2022-11-11T22:20:22.003Z,63131.69
2022-11-11T22:23:08.895Z,100070.53
2022-11-11T22:25:59.465Z,81449.53
2022-11-11T22:28:49.803Z,100070.53
2022-11-11T22:31:42.031Z,100070.53
2022-11-11T22:34:28.720Z,100070.53
2022-11-11T22:37:16.912Z,100070.53
2022-11-11T22:40:03.929Z,100070.53
2022-11-11T22:42:50.782Z,100070.53
2022-11-11T22:46:36.626Z,63131.69
2022-11-11T22:49:23.446Z,63131.69
2022-11-11T22:52:10.301Z,63131.69
2022-11-11T22:54:58.515Z,63131.69
2022-11-11T22:57:45.202Z,63131.69
2022-11-11T23:00:31.815Z,63131.69
2022-11-11T23:03:18.618Z,63131.69
2022-11-11T23:06:06.409Z,63131.69
2022-11-11T23:11:41.290Z,99809.84
2022-11-11T23:14:28.160Z,63131.69
2022-11-11T23:17:14.858Z,99837.06
2022-11-11T23:20:01.667Z,99877.38
2022-11-11T23:22:48.402Z,99909.66
2022-11-11T23:25:35.131Z,99936.31
2022-11-11T23:28:23.780Z,99950.34
2022-11-11T23:31:11.269Z,99974.81
2022-11-11T23:33:58.933Z,99996.81
2022-11-11T23:36:45.349Z,100006.31
2022-11-11T23:39:32.067Z,100028.09
2022-11-11T23:42:18.907Z,100038.91
2022-11-11T23:45:07.870Z,100053.31
2022-11-11T23:47:54.608Z,100056.81
2022-11-11T23:50:41.646Z,100075.56
2022-11-11T23:53:28.066Z,100076.03
2022-11-11T23:56:14.873Z,100091.16
2022-11-11T23:59:01.815Z,100098.72
